| time (UTC) | temp C | wind direction | speed KPH | gust KPH | rain 1hr cm | rain 24hr cm | rain mn cm | humidity % | barometer mb |
| 20260507231702 | 23 | 229 | 11.3 | 16.1 | 0.00 | 0.00 | 0.00 | 55 | 1014.4 |
| 20260507230702 | 23 | 213 | 9.7 | 14.5 | 0.00 | 0.00 | 0.00 | 56 | 1014.4 |
| 20260507225702 | 23 | 233 | 11.3 | 17.7 | 0.00 | 0.00 | 0.00 | 56 | 1014.4 |
| 20260507224702 | 23 | 212 | 9.7 | 12.9 | 0.00 | 0.00 | 0.00 | 55 | 1014.5 |
| 20260507223702 | 23 | 182 | 4.8 | 17.7 | 0.00 | 0.00 | 0.00 | 54 | 1014.6 |
| 20260507222702 | 25 | 195 | 8.0 | 14.5 | 0.00 | 0.00 | 0.00 | 52 | 1014.7 |
| 20260507221702 | 25 | 236 | 4.8 | 9.7 | 0.00 | 0.00 | 0.00 | 51 | 1014.6 |
| 20260507220702 | 23 | 183 | 11.3 | 17.7 | 0.00 | 0.00 | 0.00 | 51 | 1014.9 |
| 20260507215702 | 23 | 245 | 9.7 | 17.7 | 0.00 | 0.00 | 0.00 | 52 | 1015.0 |
| 20260507214702 | 24 | 222 | 9.7 | 16.1 | 0.00 | 0.00 | 0.00 | 51 | 1015.1 |
| 20260507213702 | 24 | 227 | 6.4 | 16.1 | 0.00 | 0.00 | 0.00 | 50 | 1015.2 |
| 20260507212702 | 24 | 141 | 9.7 | 19.3 | 0.00 | 0.00 | 0.00 | 51 | 1015.2 |
| 20260507211702 | 24 | 232 | 8.0 | 17.7 | 0.00 | 0.00 | 0.00 | 51 | 1015.3 |
| 20260507210702 | 24 | 241 | 12.9 | 17.7 | 0.00 | 0.00 | 0.00 | 51 | 1015.4 |
| 20260507205703 | 23 | 246 | 8.0 | 14.5 | 0.00 | 0.00 | 0.00 | 52 | 1015.5 |
| 20260507204702 | 24 | 233 | 8.0 | 19.3 | 0.00 | 0.00 | 0.00 | 51 | 1015.6 |
| 20260507203702 | 24 | 178 | 11.3 | 16.1 | 0.00 | 0.00 | 0.00 | 52 | 1015.6 |
| 20260507202702 | 24 | 246 | 8.0 | 17.7 | 0.00 | 0.00 | 0.00 | 52 | 1015.6 |
| 20260507201702 | 24 | 234 | 9.7 | 16.1 | 0.00 | 0.00 | 0.00 | 51 | 1015.7 |
| 20260507200702 | 23 | 272 | 8.0 | 14.5 | 0.00 | 0.00 | 0.00 | 53 | 1015.9 |
| 20260507195702 | 25 | 271 | 4.8 | 20.9 | 0.00 | 0.00 | 0.00 | 51 | 1016.0 |
| 20260507194702 | 25 | 207 | 6.4 | 12.9 | 0.00 | 0.00 | 0.00 | 51 | 1015.9 |
| 20260507193702 | 23 | 242 | 3.2 | 19.3 | 0.00 | 0.00 | 0.00 | 55 | 1016.1 |
| 20260507192702 | 23 | 265 | 1.6 | 12.9 | 0.00 | 0.00 | 0.00 | 56 | 1016.2 |
| 20260507191702 | 23 | 258 | 12.9 | 16.1 | 0.00 | 0.00 | 0.00 | 55 | 1016.2 |
| 20260507190702 | 23 | 188 | 4.8 | 14.5 | 0.00 | 0.00 | 0.00 | 56 | 1016.4 |
| 20260507185702 | 22 | 282 | 9.7 | 14.5 | 0.00 | 0.00 | 0.00 | 58 | 1016.5 |
| 20260507184702 | 22 | 211 | 1.6 | 14.5 | 0.00 | 0.00 | 0.00 | 58 | 1016.6 |
| 20260507183702 | 23 | 245 | 4.8 | 12.9 | 0.00 | 0.00 | 0.00 | 56 | 1016.7 |
| 20260507182702 | 23 | 185 | 8.0 | 14.5 | 0.00 | 0.00 | 0.00 | 55 | 1016.6 |
| 20260507181702 | 23 | 196 | 3.2 | 9.7 | 0.00 | 0.00 | 0.00 | 55 | 1016.6 |
| 20260507180702 | 23 | 230 | 4.8 | 9.7 | 0.00 | 0.00 | 0.00 | 55 | 1016.7 |
| 20260507175702 | 23 | 138 | 1.6 | 4.8 | 0.00 | 0.00 | 0.00 | 54 | 1016.8 |
| 20260507174702 | 23 | 163 | 3.2 | 8.0 | 0.00 | 0.00 | 0.00 | 54 | 1016.8 |
| 20260507173702 | 22 | 255 | 4.8 | 9.7 | 0.00 | 0.00 | 0.00 | 55 | 1016.9 |
| 20260507172702 | 22 | 186 | 0.0 | 1.6 | 0.00 | 0.00 | 0.00 | 56 | 1016.9 |
| 20260507171702 | 22 | 206 | 4.8 | 9.7 | 0.00 | 0.00 | 0.00 | 56 | 1017.0 |
| 20260507170702 | 22 | 186 | 0.0 | 8.0 | 0.00 | 0.00 | 0.00 | 56 | 1016.9 |
| 20260507165702 | 22 | 171 | 1.6 | 3.2 | 0.00 | 0.00 | 0.00 | 58 | 1017.0 |
| 20260507164702 | 21 | 250 | 0.0 | 3.2 | 0.00 | 0.00 | 0.00 | 61 | 1017.1 |
| 20260507163702 | 21 | 224 | 1.6 | 6.4 | 0.00 | 0.00 | 0.00 | 60 | 1017.2 |
| 20260507162702 | 20 | 288 | 0.0 | 9.7 | 0.00 | 0.00 | 0.00 | 66 | 1017.2 |
| 20260507161702 | 20 | 313 | 1.6 | 4.8 | 0.00 | 0.00 | 0.00 | 63 | 1017.2 |
| 20260507160702 | 20 | 154 | 1.6 | 6.4 | 0.00 | 0.00 | 0.00 | 63 | 1017.3 |
| 20260507155703 | 20 | 163 | 0.0 | 3.2 | 0.00 | 0.00 | 0.00 | 65 | 1017.3 |
| 20260507154702 | 19 | 132 | 4.8 | 6.4 | 0.00 | 0.00 | 0.00 | 67 | 1017.4 |
| 20260507153702 | 19 | 247 | 3.2 | 4.8 | 0.00 | 0.00 | 0.00 | 68 | 1017.3 |
| 20260507152702 | 19 | 248 | 0.0 | 1.6 | 0.00 | 0.00 | 0.00 | 69 | 1017.4 |
| 20260507151702 | 18 | 248 | 0.0 | 1.6 | 0.00 | 0.00 | 0.00 | 73 | 1017.5 |
| 20260507150702 | 17 | 248 | 3.2 | 4.8 | 0.00 | 0.00 | 0.00 | 73 | 1017.5 |
| 20260507145702 | 18 | 141 | 0.0 | 1.6 | 0.00 | 0.00 | 0.00 | 71 | 1017.4 |
| 20260507144702 | 17 | 141 | 0.0 | 3.2 | 0.00 | 0.00 | 0.00 | 74 | 1017.4 |
| 20260507143702 | 17 | 285 | 0.0 | 1.6 | 0.00 | 0.00 | 0.00 | 77 | 1017.3 |
| 20260507142702 | 16 | 285 | 0.0 | 1.6 | 0.00 | 0.00 | 0.00 | 78 | 1017.2 |
| 20260507141702 | 16 | 285 | 1.6 | 3.2 | 0.00 | 0.00 | 0.00 | 78 | 1017.1 |
| 20260507140702 | 16 | 286 | 1.6 | 3.2 | 0.00 | 0.00 | 0.00 | 80 | 1017.0 |
| 20260507135702 | 16 | 286 | 0.0 | 0.0 | 0.00 | 0.00 | 0.00 | 79 | 1016.9 |
| 20260507134702 | 16 | 286 | 0.0 | 0.0 | 0.00 | 0.00 | 0.00 | 80 | 1016.8 |
| 20260507133702 | 13 | 286 | 0.0 | 0.0 | 0.00 | 0.00 | 0.00 | 89 | 1016.7 |
| 20260507132702 | 13 | 286 | 0.0 | 0.0 | 0.00 | 0.00 | 0.00 | 89 | 1016.7 |
| 20260507131702 | 12 | 286 | 0.0 | 0.0 | 0.00 | 0.00 | 0.00 | 89 | 1016.6 |
| 20260507130702 | 12 | 286 | 0.0 | 0.0 | 0.00 | 0.00 | 0.00 | 89 | 1016.6 |
| 20260507125702 | 12 | 286 | 0.0 | 0.0 | 0.00 | 0.00 | 0.00 | 90 | 1016.4 |
| 20260507124702 | 12 | 287 | 0.0 | 1.6 | 0.00 | 0.00 | 0.00 | 89 | 1016.4 |
| 20260507123702 | 13 | 286 | 0.0 | 0.0 | 0.00 | 0.00 | 0.00 | 88 | 1016.3 |
| 20260507122702 | 13 | 286 | 0.0 | 0.0 | 0.00 | 0.00 | 0.00 | 89 | 1016.3 |
| 20260507121702 | 12 | 286 | 0.0 | 0.0 | 0.00 | 0.00 | 0.00 | 88 | 1016.3 |
| 20260507120702 | 13 | 286 | 0.0 | 0.0 | 0.00 | 0.00 | 0.00 | 88 | 1016.5 |
| 20260507115702 | 13 | 286 | 0.0 | 0.0 | 0.00 | 0.00 | 0.00 | 88 | 1016.5 |
| 20260507114702 | 13 | 286 | 0.0 | 0.0 | 0.00 | 0.00 | 0.00 | 88 | 1016.5 |
| 20260507113702 | 13 | 287 | 0.0 | 1.6 | 0.00 | 0.00 | 0.00 | 87 | 1016.5 |
| 20260507112702 | 13 | 287 | 0.0 | 1.6 | 0.00 | 0.00 | 0.00 | 86 | 1016.5 |
| 20260507111702 | 13 | 287 | 0.0 | 1.6 | 0.00 | 0.00 | 0.00 | 86 | 1016.6 |
| 20260507110702 | 13 | 286 | 0.0 | 1.6 | 0.00 | 0.00 | 0.00 | 87 | 1016.7 |
| 20260507105702 | 13 | 286 | 0.0 | 0.0 | 0.00 | 0.00 | 0.00 | 87 | 1016.7 |
| 20260507104702 | 13 | 286 | 0.0 | 0.0 | 0.00 | 0.00 | 0.00 | 86 | 1016.7 |
| 20260507103702 | 13 | 287 | 0.0 | 1.6 | 0.00 | 0.00 | 0.00 | 85 | 1016.8 |
| 20260507102702 | 14 | 286 | 0.0 | 1.6 | 0.00 | 0.00 | 0.00 | 85 | 1016.9 |
| 20260507101702 | 13 | 286 | 0.0 | 1.6 | 0.00 | 0.00 | 0.00 | 85 | 1016.8 |
| 20260507100702 | 14 | 286 | 0.0 | 1.6 | 0.00 | 0.00 | 0.00 | 83 | 1016.9 |
| 20260507095702 | 14 | 286 | 1.6 | 3.2 | 0.00 | 0.00 | 0.00 | 83 | 1016.9 |
| 20260507094702 | 14 | 286 | 0.0 | 0.0 | 0.00 | 0.00 | 0.00 | 83 | 1016.9 |
| 20260507093702 | 15 | 286 | 0.0 | 1.6 | 0.00 | 0.00 | 0.00 | 83 | 1017.1 |
| 20260507092702 | 14 | 286 | 0.0 | 1.6 | 0.00 | 0.00 | 0.00 | 84 | 1017.3 |
| 20260507091702 | 14 | 286 | 0.0 | 0.0 | 0.00 | 0.00 | 0.00 | 84 | 1017.3 |
| 20260507090702 | 14 | 286 | 0.0 | 0.0 | 0.00 | 0.00 | 0.00 | 84 | 1017.5 |
| 20260507085702 | 14 | 286 | 0.0 | 0.0 | 0.00 | 0.00 | 0.00 | 83 | 1017.5 |
| 20260507084702 | 14 | 286 | 0.0 | 0.0 | 0.00 | 0.00 | 0.00 | 83 | 1017.6 |
| 20260507083702 | 15 | 286 | 0.0 | 3.2 | 0.00 | 0.00 | 0.00 | 82 | 1017.7 |
| 20260507082702 | 15 | 307 | 0.0 | 3.2 | 0.00 | 0.00 | 0.00 | 82 | 1017.8 |
| 20260507081702 | 15 | 307 | 0.0 | 1.6 | 0.00 | 0.00 | 0.00 | 82 | 1017.8 |
| 20260507080702 | 15 | 307 | 0.0 | 0.0 | 0.00 | 0.00 | 0.00 | 81 | 1017.8 |
| 20260507075702 | 15 | 328 | 1.6 | 3.2 | 0.00 | 0.00 | 0.00 | 80 | 1017.7 |
| 20260507074702 | 15 | 296 | 1.6 | 3.2 | 0.00 | 0.00 | 0.00 | 80 | 1017.8 |
| 20260507073702 | 15 | 292 | 3.2 | 6.4 | 0.00 | 0.00 | 0.00 | 78 | 1017.8 |
| 20260507072702 | 16 | 319 | 1.6 | 4.8 | 0.00 | 0.00 | 0.00 | 78 | 1017.9 |
| 20260507071702 | 16 | 279 | 1.6 | 4.8 | 0.00 | 0.00 | 0.00 | 77 | 1018.0 |
| 20260507070702 | 16 | 326 | 1.6 | 3.2 | 0.00 | 0.00 | 0.00 | 76 | 1017.9 |
| 20260507065702 | 16 | 327 | 1.6 | 3.2 | 0.00 | 0.00 | 0.00 | 76 | 1018.1 |
| 20260507064702 | 16 | 327 | 0.0 | 3.2 | 0.00 | 0.00 | 0.00 | 76 | 1018.0 |
| 20260507063702 | 16 | 306 | 0.0 | 1.6 | 0.00 | 0.00 | 0.00 | 76 | 1018.2 |
| 20260507062702 | 16 | 305 | 0.0 | 3.2 | 0.00 | 0.00 | 0.00 | 75 | 1018.1 |
| 20260507061702 | 16 | 304 | 1.6 | 4.8 | 0.00 | 0.00 | 0.00 | 75 | 1018.1 |
| 20260507060703 | 16 | 305 | 0.0 | 1.6 | 0.00 | 0.00 | 0.00 | 74 | 1018.1 |
| 20260507055702 | 16 | 309 | 0.0 | 3.2 | 0.00 | 0.00 | 0.00 | 73 | 1018.1 |
| 20260507054702 | 16 | 298 | 1.6 | 3.2 | 0.00 | 0.00 | 0.00 | 73 | 1018.1 |
| 20260507053702 | 16 | 278 | 3.2 | 4.8 | 0.00 | 0.00 | 0.00 | 72 | 1018.0 |
| 20260507052702 | 16 | 301 | 1.6 | 6.4 | 0.00 | 0.00 | 0.00 | 72 | 1018.0 |
| 20260507051702 | 16 | 274 | 1.6 | 6.4 | 0.00 | 0.00 | 0.00 | 72 | 1017.9 |
| 20260507050702 | 16 | 305 | 6.4 | 8.0 | 0.00 | 0.00 | 0.00 | 71 | 1017.9 |
| 20260507045702 | 17 | 244 | 3.2 | 6.4 | 0.00 | 0.00 | 0.00 | 70 | 1017.9 |
| 20260507044702 | 17 | 284 | 3.2 | 6.4 | 0.00 | 0.00 | 0.00 | 68 | 1018.0 |
| 20260507043702 | 17 | 284 | 6.4 | 8.0 | 0.00 | 0.00 | 0.00 | 66 | 1017.9 |
| 20260507042702 | 17 | 266 | 4.8 | 6.4 | 0.00 | 0.00 | 0.00 | 65 | 1017.8 |
| 20260507041702 | 17 | 277 | 3.2 | 4.8 | 0.00 | 0.00 | 0.00 | 65 | 1017.8 |
| 20260507040702 | 17 | 295 | 1.6 | 9.7 | 0.00 | 0.00 | 0.00 | 65 | 1017.6 |
| 20260507035702 | 17 | 304 | 4.8 | 8.0 | 0.00 | 0.00 | 0.00 | 65 | 1017.5 |
| 20260507034702 | 17 | 324 | 3.2 | 8.0 | 0.00 | 0.00 | 0.00 | 64 | 1017.6 |
| 20260507033702 | 18 | 283 | 8.0 | 9.7 | 0.00 | 0.00 | 0.00 | 62 | 1017.3 |
| 20260507032702 | 18 | 275 | 6.4 | 14.5 | 0.00 | 0.00 | 0.00 | 62 | 1017.2 |
| 20260507031702 | 18 | 322 | 3.2 | 6.4 | 0.00 | 0.00 | 0.00 | 61 | 1017.1 |
| 20260507030702 | 18 | 265 | 9.7 | 14.5 | 0.00 | 0.00 | 0.00 | 61 | 1017.0 |
| 20260507025702 | 19 | 270 | 4.8 | 8.0 | 0.00 | 0.00 | 0.00 | 59 | 1016.9 |
| 20260507024702 | 19 | 264 | 3.2 | 6.4 | 0.00 | 0.00 | 0.00 | 59 | 1016.9 |
| 20260507023702 | 20 | 274 | 8.0 | 14.5 | 0.00 | 0.00 | 0.00 | 57 | 1016.7 |
| 20260507022702 | 20 | 277 | 6.4 | 8.0 | 0.00 | 0.00 | 0.00 | 57 | 1016.6 |
| 20260507021702 | 20 | 253 | 4.8 | 9.7 | 0.00 | 0.00 | 0.00 | 57 | 1016.6 |
| 20260507020702 | 21 | 293 | 3.2 | 8.0 | 0.00 | 0.00 | 0.00 | 55 | 1016.4 |
| 20260507015702 | 21 | 244 | 3.2 | 8.0 | 0.00 | 0.00 | 0.00 | 55 | 1016.4 |
| 20260507014702 | 21 | 237 | 6.4 | 9.7 | 0.00 | 0.00 | 0.00 | 59 | 1016.4 |
| 20260507013702 | 21 | 215 | 6.4 | 14.5 | 0.00 | 0.00 | 0.00 | 57 | 1016.3 |
| 20260507012702 | 21 | 194 | 9.7 | 12.9 | 0.00 | 0.00 | 0.00 | 56 | 1016.2 |
| 20260507011702 | 21 | 234 | 6.4 | 12.9 | 0.00 | 0.00 | 0.00 | 57 | 1016.2 |
| 20260507010702 | 21 | 199 | 4.8 | 14.5 | 0.00 | 0.00 | 0.00 | 54 | 1016.1 |
| 20260507005702 | 22 | 131 | 6.4 | 16.1 | 0.00 | 0.00 | 0.00 | 49 | 1016.1 |
| 20260507004702 | 22 | 181 | 12.9 | 16.1 | 0.00 | 0.00 | 0.00 | 49 | 1016.1 |
| 20260507003702 | 22 | 209 | 8.0 | 16.1 | 0.00 | 0.00 | 0.00 | 48 | 1016.2 |
| 20260507002702 | 22 | 219 | 6.4 | 14.5 | 0.00 | 0.00 | 0.00 | 51 | 1016.1 |
| 20260507001702 | 22 | 180 | 16.1 | 24.1 | 0.00 | 0.00 | 0.00 | 50 | 1016.1 |
| 20260507000702 | 23 | 170 | 8.0 | 9.7 | 0.00 | 0.00 | 0.00 | 50 | 1016.0 |
| 20260506235702 | 22 | 201 | 9.7 | 17.7 | 0.00 | 0.00 | 0.00 | 50 | 1016.0 |
| 20260506234702 | 22 | 185 | 8.0 | 12.9 | 0.00 | 0.00 | 0.00 | 50 | 1016.1 |
| 20260506233702 | 22 | 189 | 11.3 | 16.1 | 0.00 | 0.00 | 0.00 | 50 | 1016.1 |
| 20260506232702 | 22 | 207 | 6.4 | 17.7 | 0.00 | 0.00 | 0.00 | 49 | 1016.1 |